Time;durP1;ratioP1;P1;durP2;ratioP2;P2;SDS_P1;SDS_P2;PMS_P1;PMS_P2;Temp;Humidity;BMP_temperature;BMP_pressure;BME280_temperature;BME280_humidity;BME280_pressure;Samples;Min_cycle;Max_cycle;Signal;HPM_P1;HPM_P2
2022/08/07 00:00:00;;;;;;;;;1.00;1.00;;;;;24.55;27.91;102096.22;5056312;28;45363;-70
2022/08/07 00:02:26;;;;;;;;;1.00;1.00;;;;;24.51;28.40;102098.31;5056037;28;45508;-70
2022/08/07 00:04:52;;;;;;;;;3.33;2.00;;;;;24.46;28.59;102095.06;5055989;28;45512;-70
2022/08/07 00:07:17;;;;;;;;;1.67;1.67;;;;;24.42;28.10;102091.75;5056060;28;45435;-71
2022/08/07 00:09:43;;;;;;;;;3.33;2.33;;;;;24.39;28.71;102091.97;5056338;28;45455;-70
2022/08/07 00:12:08;;;;;;;;;1.33;1.33;;;;;24.36;28.80;102096.81;5055749;28;46292;-71
2022/08/07 00:14:33;;;;;;;;;3.00;1.00;;;;;24.33;28.34;102091.63;5058334;28;45419;-70
2022/08/07 00:17:00;;;;;;;;;2.33;2.33;;;;;24.30;28.39;102091.88;5041642;28;45828;-70
2022/08/07 00:19:27;;;;;;;;;2.00;2.00;;;;;24.25;28.61;102086.78;5059892;28;45537;-71
2022/08/07 00:21:52;;;;;;;;;1.33;1.33;;;;;24.22;28.91;102090.63;5041248;28;46292;-71
2022/08/07 00:24:18;;;;;;;;;1.00;1.00;;;;;24.19;28.58;102092.75;5059369;28;45738;-70
2022/08/07 00:26:43;;;;;;;;;2.33;2.33;;;;;24.15;28.90;102086.66;5060022;28;45474;-70
2022/08/07 00:29:08;;;;;;;;;3.33;1.67;;;;;24.07;28.82;102077.34;5079933;28;45406;-70
2022/08/07 00:31:34;;;;;;;;;2.00;2.00;;;;;24.09;28.78;102084.44;5061448;28;45743;-70
2022/08/07 00:33:59;;;;;;;;;2.33;2.33;;;;;23.97;28.72;102064.47;5079441;28;45521;-71
2022/08/07 00:36:24;;;;;;;;;1.00;1.00;;;;;24.05;28.93;102073.91;5079674;28;45394;-71
2022/08/07 00:38:50;;;;;;;;;4.00;2.00;;;;;24.02;29.30;102070.44;5079678;28;45446;-71
2022/08/07 00:41:23;;;;;;;;;2.00;2.00;;;;;24.00;28.90;102075.13;5079066;28;47301;-70
2022/08/07 00:43:48;;;;;;;;;4.00;2.00;;;;;23.97;29.14;102069.06;5079233;28;45457;-70
2022/08/07 00:46:14;;;;;;;;;2.00;2.00;;;;;23.94;29.13;102075.63;5063381;28;45489;-70
2022/08/07 00:48:39;;;;;;;;;2.00;2.00;;;;;23.93;29.14;102071.16;5059567;28;45489;-70
2022/08/07 00:51:05;;;;;;;;;1.67;1.67;;;;;23.86;29.14;102059.03;5058881;28;46202;-71
2022/08/07 00:53:30;;;;;;;;;2.00;2.00;;;;;23.88;29.52;102067.94;5058870;28;45410;-71
2022/08/07 00:55:55;;;;;;;;;2.00;2.00;;;;;23.88;29.65;102069.78;5058653;28;45497;-71
2022/08/07 00:58:21;;;;;;;;;2.00;2.00;;;;;23.84;29.31;102050.13;5059208;28;45533;-70
2022/08/07 01:00:48;;;;;;;;;2.67;2.67;;;;;23.84;29.63;102055.56;5058689;28;46919;-70
2022/08/07 01:03:13;;;;;;;;;1.00;1.00;;;;;23.83;29.84;102050.22;5058625;28;45520;-71
2022/08/07 01:05:41;;;;;;;;;1.00;1.00;;;;;23.74;29.96;102043.63;5058899;28;45557;-71
2022/08/07 01:08:06;;;;;;;;;1.00;1.00;;;;;23.79;29.49;102046.91;5059126;28;45458;-70
2022/08/07 01:10:32;;;;;;;;;1.67;1.67;;;;;23.71;29.98;102038.41;5058134;28;46200;-70
2022/08/07 01:12:57;;;;;;;;;3.33;2.00;;;;;23.75;29.61;102050.84;5058474;28;45780;-70
2022/08/07 01:15:24;;;;;;;;;3.00;3.00;;;;;23.75;30.09;102048.97;5058702;28;45428;-70
2022/08/07 01:17:50;;;;;;;;;2.00;2.00;;;;;23.75;30.19;102048.13;5058756;28;45608;-70
2022/08/07 01:20:16;;;;;;;;;2.00;2.00;;;;;23.74;29.65;102046.38;5058296;28;47210;-70
2022/08/07 01:22:42;;;;;;;;;1.33;1.33;;;;;23.65;29.87;102031.63;5058154;28;45478;-70
2022/08/07 01:25:09;;;;;;;;;2.33;2.33;;;;;23.72;30.00;102040.16;5039582;28;45430;-71
2022/08/07 01:27:35;;;;;;;;;1.67;1.67;;;;;23.71;30.15;102041.13;5067073;28;45198;-70
2022/08/07 01:30:01;;;;;;;;;4.00;2.67;;;;;23.70;29.70;102039.41;5078624;28;45925;-70
2022/08/07 01:32:27;;;;;;;;;3.33;1.33;;;;;23.66;30.35;102046.09;5078559;28;45406;-70
2022/08/07 01:34:53;;;;;;;;;1.00;1.00;;;;;23.63;29.94;102047.19;5060414;28;45452;-70
2022/08/07 01:37:18;;;;;;;;;2.67;2.67;;;;;23.57;30.07;102047.66;5078847;28;45455;-70
2022/08/07 01:39:45;;;;;;;;;2.00;2.00;;;;;23.56;30.45;102046.81;5078164;28;47474;-70
2022/08/07 01:42:12;;;;;;;;;2.67;2.67;;;;;23.54;30.44;102054.22;5078484;28;45472;-70
2022/08/07 01:44:38;;;;;;;;;2.67;2.67;;;;;23.55;30.52;102050.53;5076028;28;45379;-70
2022/08/07 01:47:04;;;;;;;;;2.33;2.33;;;;;23.52;30.24;102048.03;5058602;28;45438;-70
2022/08/07 01:49:30;;;;;;;;;1.00;1.00;;;;;23.53;30.22;102049.78;5057874;28;45450;-70
2022/08/07 01:51:58;;;;;;;;;2.00;2.00;;;;;23.51;30.30;102045.44;5039879;28;45434;-70
2022/08/07 01:54:28;;;;;;;;;4.00;4.00;;;;;23.50;30.39;102051.84;5039962;28;45418;-70
2022/08/07 01:57:01;;;;;;;;;2.00;2.00;;;;;23.49;30.49;102041.97;5058326;28;45429;-71
2022/08/07 01:59:31;;;;;;;;;1.67;1.67;;;;;23.45;30.53;102041.31;5057913;28;45794;-70
2022/08/07 02:02:07;;;;;;;;;3.00;2.00;;;;;23.42;30.61;102049.72;5057675;28;45471;-70
2022/08/07 02:04:42;;;;;;;;;2.00;2.00;;;;;23.39;30.67;102048.13;5057770;28;45432;-70
2022/08/07 02:07:10;;;;;;;;;2.00;2.00;;;;;23.34;31.08;102039.44;5058076;28;45558;-70
2022/08/07 02:09:39;;;;;;;;;3.00;2.00;;;;;23.36;31.09;102048.34;5039567;28;46245;-70
2022/08/07 02:12:16;;;;;;;;;2.00;2.00;;;;;23.35;30.99;102046.63;5057807;28;45431;-70
2022/08/07 02:14:48;;;;;;;;;1.00;1.00;;;;;23.32;31.01;102045.97;5056309;28;45434;-70
2022/08/07 02:17:15;;;;;;;;;2.00;2.00;;;;;23.29;31.48;102046.22;5058096;28;45730;-70
2022/08/07 02:19:43;;;;;;;;;1.33;1.33;;;;;23.25;30.79;102047.44;5062396;28;46186;-80
2022/08/07 02:22:11;;;;;;;;;3.00;2.00;;;;;23.25;30.73;102048.31;5065103;28;45434;-81
2022/08/07 02:24:38;;;;;;;;;1.00;1.00;;;;;23.13;31.28;102039.25;5061754;28;45464;-80
2022/08/07 02:27:04;;;;;;;;;3.00;2.00;;;;;23.20;31.55;102046.91;5067851;28;45490;-80
2022/08/07 02:29:31;;;;;;;;;2.00;2.00;;;;;23.20;31.13;102050.50;5083354;28;46286;-81
2022/08/07 02:31:59;;;;;;;;;2.00;2.00;;;;;23.20;31.49;102049.63;5085593;28;45381;-80
2022/08/07 02:34:27;;;;;;;;;1.00;1.00;;;;;23.15;31.12;102050.84;5084891;28;45424;-81
2022/08/07 02:36:54;;;;;;;;;1.00;1.00;;;;;23.12;31.82;102039.34;5086168;28;45445;-80
2022/08/07 02:39:21;;;;;;;;;1.00;1.00;;;;;23.10;31.44;102044.03;5086336;28;46441;-80
2022/08/07 02:41:47;;;;;;;;;1.00;1.00;;;;;23.07;32.09;102042.44;5086555;28;45433;-80
2022/08/07 02:44:14;;;;;;;;;1.67;1.67;;;;;23.05;32.37;102040.81;5085854;28;45587;-80
2022/08/07 02:46:41;;;;;;;;;1.00;1.00;;;;;23.04;31.63;102049.94;5065755;28;45431;-80
2022/08/07 02:49:06;;;;;;;;;2.00;1.00;;;;;23.00;31.93;102048.47;5063830;28;45506;-80
2022/08/07 02:51:34;;;;;;;;;1.00;1.00;;;;;22.93;32.11;102040.72;5063556;28;45510;-80
2022/08/07 02:54:01;;;;;;;;;1.00;1.00;;;;;22.95;32.30;102041.47;5064420;28;45469;-80
2022/08/07 02:56:30;;;;;;;;;2.00;2.00;;;;;22.93;32.15;102043.44;5063238;28;45412;-80
2022/08/07 02:59:00;;;;;;;;;2.00;2.00;;;;;22.90;32.53;102038.22;5063250;28;47449;-80
2022/08/07 03:01:27;;;;;;;;;1.33;1.33;;;;;22.84;32.57;102030.53;5065059;28;45230;-81
2022/08/07 03:03:55;;;;;;;;;2.00;2.00;;;;;22.83;32.98;102031.53;5066041;28;45487;-80
2022/08/07 03:06:21;;;;;;;;;1.00;1.00;;;;;22.85;32.61;102036.81;5062610;28;45547;-81
2022/08/07 03:08:48;;;;;;;;;1.33;1.33;;;;;22.81;32.36;102036.22;5063322;28;46696;-80
2022/08/07 03:11:14;;;;;;;;;1.00;1.00;;;;;22.78;32.38;102039.16;5066115;28;45446;-81
2022/08/07 03:13:41;;;;;;;;;1.67;1.67;;;;;22.77;32.35;102034.69;5065132;28;45445;-81
2022/08/07 03:16:06;;;;;;;;;2.00;2.00;;;;;22.76;32.78;102033.84;5063993;28;45489;-80
2022/08/07 03:18:32;;;;;;;;;1.33;1.33;;;;;22.57;32.66;101995.44;5063836;28;47217;-71
2022/08/07 03:20:58;;;;;;;;;4.67;2.00;;;;;22.67;32.65;102020.06;5038559;28;46036;-70
2022/08/07 03:23:26;;;;;;;;;3.33;1.67;;;;;22.71;32.93;102030.59;5056724;28;45375;-70
2022/08/07 03:25:53;;;;;;;;;1.00;1.00;;;;;22.64;32.97;102020.28;5056732;28;45449;-70
2022/08/07 03:28:19;;;;;;;;;1.00;1.00;;;;;22.67;33.07;102025.50;5070397;28;47326;-70
2022/08/07 03:30:45;;;;;;;;;2.00;2.00;;;;;;;;5076914;28;45344;-71
2022/08/07 03:33:12;;;;;;;;;1.00;1.00;;;;;22.62;33.12;102034.00;5076964;28;45480;-70
2022/08/07 03:35:39;;;;;;;;;1.00;1.00;;;;;22.60;33.62;102029.66;5076990;28;45625;-70
2022/08/07 03:38:07;;;;;;;;;2.33;1.00;;;;;22.58;33.37;102031.63;5076546;28;46105;-70
2022/08/07 03:40:33;;;;;;;;;2.00;2.00;;;;;22.57;33.05;102036.19;5076281;28;45452;-70
2022/08/07 03:42:59;;;;;;;;;2.00;2.00;;;;;22.57;33.14;102032.59;5058393;28;45469;-71
2022/08/07 03:45:26;;;;;;;;;4.00;3.00;;;;;22.53;33.58;102029.25;5067955;28;45537;-71
2022/08/07 03:47:52;;;;;;;;;4.00;2.33;;;;;22.51;33.53;102037.50;5055552;28;46265;-70
2022/08/07 03:50:19;;;;;;;;;1.00;1.00;;;;;22.52;33.57;102032.91;5055938;28;45411;-70
2022/08/07 03:52:46;;;;;;;;;1.67;1.67;;;;;22.51;33.35;102034.78;5056341;28;45371;-70
2022/08/07 03:55:12;;;;;;;;;4.00;2.00;;;;;22.43;33.34;102025.44;5056437;28;45446;-70
2022/08/07 03:57:38;;;;;;;;;1.00;1.00;;;;;22.45;33.74;102037.06;5055891;28;45391;-70
2022/08/07 04:00:04;;;;;;;;;1.33;1.33;;;;;22.45;34.02;102031.63;5056176;28;45476;-70
2022/08/07 04:02:30;;;;;;;;;2.67;2.00;;;;;22.45;33.97;102035.25;5056060;28;45386;-70
2022/08/07 04:04:56;;;;;;;;;1.00;1.00;;;;;22.35;33.77;102026.03;5038262;28;45519;-70
2022/08/07 04:07:22;;;;;;;;;2.00;2.00;;;;;22.42;34.08;102030.03;5055905;28;46214;-70
2022/08/07 04:09:49;;;;;;;;;1.33;1.33;;;;;22.41;33.61;102036.44;5055817;28;45429;-70
2022/08/07 04:12:15;;;;;;;;;2.00;2.00;;;;;22.40;33.96;102028.41;5055983;28;45568;-70
2022/08/07 04:14:42;;;;;;;;;2.00;2.00;;;;;22.16;34.41;101996.59;5056155;28;45435;-70
2022/08/07 04:17:07;;;;;;;;;3.67;2.00;;;;;22.36;34.32;102033.22;5056066;28;46222;-70
2022/08/07 04:19:33;;;;;;;;;1.67;1.67;;;;;22.28;34.07;102024.72;5055668;28;45369;-70
2022/08/07 04:21:59;;;;;;;;;1.67;1.67;;;;;22.33;33.77;102033.41;5056044;28;45440;-70
2022/08/07 04:24:25;;;;;;;;;4.00;3.00;;;;;22.24;34.08;102015.97;5056440;28;45629;-70
2022/08/07 04:26:51;;;;;;;;;2.00;1.67;;;;;22.29;34.12;102030.06;5057585;28;46081;-70
2022/08/07 04:29:16;;;;;;;;;1.00;1.00;;;;;22.26;34.23;102021.25;5057811;28;45401;-70
2022/08/07 04:31:42;;;;;;;;;2.67;1.67;;;;;22.29;34.29;102030.06;5076056;28;45486;-70
2022/08/07 04:34:08;;;;;;;;;1.00;1.00;;;;;22.23;33.95;102024.22;5058005;28;45439;-70
2022/08/07 04:36:34;;;;;;;;;1.00;1.00;;;;;22.28;34.15;102030.16;5057562;28;46369;-70
2022/08/07 04:39:00;;;;;;;;;2.00;2.00;;;;;22.27;34.32;102034.72;5075717;28;45526;-70
2022/08/07 04:41:26;;;;;;;;;4.00;2.00;;;;;22.25;34.58;102033.97;5075806;28;45520;-70
2022/08/07 04:43:52;;;;;;;;;1.67;1.67;;;;;22.25;34.63;102038.53;5076168;28;45431;-70
2022/08/07 04:46:49;;;;;;;;;1.00;1.00;;;;;22.23;34.25;102037.78;5059376;28;46916;-70
2022/08/07 04:49:54;;;;;;;;;1.00;1.00;;;;;22.22;34.34;102036.94;5037201;28;46581;-70
2022/08/07 04:53:03;;;;;;;;;1.00;1.00;;;;;22.18;34.47;102042.66;5037540;28;45417;-70
2022/08/07 04:55:35;;;;;;;;;0.33;0.33;;;;;22.15;34.76;102041.03;5055839;28;45707;-70
2022/08/07 04:58:15;;;;;;;;;1.33;1.33;;;;;22.12;34.64;102042.13;5055232;28;46297;-70
2022/08/07 05:01:05;;;;;;;;;1.00;1.00;;;;;22.12;35.01;102043.94;5056348;28;45395;-70
2022/08/07 05:03:46;;;;;;;;;2.00;2.00;;;;;22.11;35.08;102044.94;5058832;28;45417;-71
2022/08/07 05:06:21;;;;;;;;;1.00;1.00;;;;;21.91;35.11;102017.38;5059296;28;45463;-70
2022/08/07 05:08:54;;;;;;;;;1.67;1.67;;;;;22.12;34.92;102052.09;5058761;28;46133;-70
2022/08/07 05:11:25;;;;;;;;;1.00;1.00;;;;;22.07;35.20;102048.84;5058673;28;45470;-70
2022/08/07 05:14:10;;;;;;;;;3.67;1.33;;;;;22.12;35.33;102061.13;5058532;28;45343;-70
2022/08/07 05:16:38;;;;;;;;;1.00;1.00;;;;;22.12;35.45;102055.69;5058756;28;45407;-70
2022/08/07 05:19:10;;;;;;;;;1.00;1.00;;;;;22.01;35.03;102042.03;5058423;28;46074;-70
2022/08/07 05:21:41;;;;;;;;;1.33;1.33;;;;;22.14;35.00;102066.44;5058523;28;45384;-70
2022/08/07 05:24:10;;;;;;;;;2.33;2.33;;;;;22.14;35.33;102071.88;5058754;28;45378;-70
2022/08/07 05:26:37;;;;;;;;;2.00;2.00;;;;;22.16;35.25;102072.63;5058767;28;45412;-70
2022/08/07 05:29:06;;;;;;;;;1.00;1.00;;;;;22.18;35.03;102077.97;5020133;28;47441;-70
2022/08/07 05:31:37;;;;;;;;;1.67;1.67;;;;;22.18;35.49;102077.97;5038061;28;45533;-70
2022/08/07 05:34:12;;;;;;;;;3.00;2.00;;;;;22.19;35.39;102080.53;5038434;28;45379;-70
2022/08/07 05:36:40;;;;;;;;;1.00;1.00;;;;;22.21;35.41;102083.19;5038787;28;45784;-70
2022/08/07 05:39:07;;;;;;;;;1.67;1.67;;;;;22.23;35.14;102078.53;5037762;28;45498;-70
2022/08/07 05:41:32;;;;;;;;;1.67;1.67;;;;;22.25;35.19;102080.16;5055720;28;45524;-70
2022/08/07 05:43:58;;;;;;;;;2.33;2.00;;;;;22.26;35.33;102078.28;5058396;28;45484;-71
2022/08/07 05:46:24;;;;;;;;;1.67;1.00;;;;;22.28;35.22;102082.63;5075226;28;45487;-71
2022/08/07 05:48:51;;;;;;;;;1.67;1.00;;;;;22.26;35.39;102073.72;5078061;28;46219;-70
2022/08/07 05:51:18;;;;;;;;;2.00;2.00;;;;;22.33;35.26;102080.44;5078262;28;45469;-70
2022/08/07 05:53:44;;;;;;;;;2.67;1.33;;;;;22.35;34.95;102077.63;5078484;28;45498;-71
2022/08/07 05:56:12;;;;;;;;;1.67;1.00;;;;;22.39;35.55;102079.16;5078908;27;45656;-70
2022/08/07 05:58:39;;;;;;;;;1.67;1.67;;;;;22.42;35.40;102080.78;5078193;28;45515;-70
2022/08/07 06:01:07;;;;;;;;;2.00;1.67;;;;;22.44;35.21;102073.38;5077710;28;45587;-70
2022/08/07 06:03:35;;;;;;;;;1.00;1.00;;;;;22.39;35.11;102071.00;5078288;28;45401;-71
2022/08/07 06:06:01;;;;;;;;;2.00;2.00;;;;;22.48;34.99;102083.06;5078496;28;45454;-70
2022/08/07 06:08:28;;;;;;;;;2.00;2.00;;;;;22.53;34.53;102089.03;5077759;28;46103;-70
2022/08/07 06:10:54;;;;;;;;;2.33;2.00;;;;;22.54;34.97;102082.59;5077478;28;45335;-70
2022/08/07 06:13:19;;;;;;;;;1.67;1.67;;;;;22.55;34.59;102082.50;5078093;28;45378;-70
2022/08/07 06:15:48;;;;;;;;;2.00;1.00;;;;;22.58;34.34;102077.81;5077955;27;45504;-70
2022/08/07 06:18:14;;;;;;;;;1.00;1.00;;;;;22.59;34.61;102079.53;5077817;28;46384;-70
2022/08/07 06:20:42;;;;;;;;;1.00;1.00;;;;;22.63;34.30;102079.19;5082374;28;45490;-80
2022/08/07 06:23:08;;;;;;;;;2.00;2.00;;;;;22.64;34.51;102083.69;5100051;27;45487;-81
2022/08/07 06:25:39;;;;;;;;;2.67;1.33;;;;;22.68;34.91;102087.03;5085409;28;45684;-80
2022/08/07 06:28:06;;;;;;;;;1.00;1.00;;;;;22.70;35.00;102083.22;5084267;27;45434;-80
2022/08/07 06:30:33;;;;;;;;;0.33;0.33;;;;;22.73;34.71;102090.25;5083998;28;45485;-80
2022/08/07 06:32:59;;;;;;;;;1.67;1.67;;;;;22.67;34.78;102078.00;5083093;27;45519;-80
2022/08/07 06:35:24;;;;;;;;;1.00;1.00;;;;;22.80;34.78;102087.97;5083806;28;45605;-81
2022/08/07 06:37:50;;;;;;;;;2.00;2.00;;;;;22.81;34.60;102085.13;5082447;28;46346;-80
2022/08/07 06:40:16;;;;;;;;;3.33;1.67;;;;;22.76;34.69;102076.47;5083338;27;46438;-80
2022/08/07 06:42:47;;;;;;;;;1.00;1.00;;;;;22.89;34.05;102095.44;5082990;28;45524;-80
2022/08/07 06:45:16;;;;;;;;;2.00;2.00;;;;;22.95;34.14;102081.41;5074435;28;45608;-81
2022/08/07 06:47:42;;;;;;;;;2.33;1.00;;;;;22.97;34.07;102091.16;5062036;28;45482;-81
2022/08/07 06:50:09;;;;;;;;;0.67;0.67;;;;;23.01;34.01;102089.09;5061349;28;45403;-81
2022/08/07 06:52:37;;;;;;;;;1.67;1.67;;;;;23.06;34.58;102080.59;5059131;28;45449;-81
2022/08/07 06:55:12;;;;;;;;;1.00;1.00;;;;;23.07;34.34;102091.38;5062688;28;46303;-80
2022/08/07 06:57:38;;;;;;;;;1.00;1.00;;;;;23.13;33.78;102082.75;5059540;28;46308;-81
2022/08/07 07:00:05;;;;;;;;;2.00;1.00;;;;;23.18;34.60;102094.16;5061461;28;45376;-81
2022/08/07 07:02:31;;;;;;;;;3.00;1.67;;;;;23.24;33.80;102083.78;5044109;28;45413;-81
2022/08/07 07:04:57;;;;;;;;;2.33;1.00;;;;;23.23;33.92;102080.22;5062263;28;45330;-80
2022/08/07 07:07:23;;;;;;;;;0.00;0.00;;;;;23.34;34.15;102091.16;5061948;28;46177;-81
2022/08/07 07:09:49;;;;;;;;;1.00;1.00;;;;;23.41;33.73;102085.22;5061143;28;45449;-81
2022/08/07 07:12:20;;;;;;;;;0.00;0.00;;;;;23.46;33.88;102092.06;5060083;28;45426;-81
2022/08/07 07:14:54;;;;;;;;;1.00;1.00;;;;;23.52;34.09;102086.13;5060138;28;45399;-81
2022/08/07 07:17:32;;;;;;;;;2.00;2.00;;;;;23.56;33.63;102086.78;5058928;28;46532;-81
2022/08/07 07:20:01;;;;;;;;;2.00;2.00;;;;;23.59;33.79;102086.53;5057939;28;45426;-81
2022/08/07 07:22:28;;;;;;;;;1.67;1.67;;;;;23.65;33.64;102085.16;5056703;28;45468;-81
2022/08/07 07:24:55;;;;;;;;;2.33;1.00;;;;;23.67;33.55;102089.53;5057408;28;45358;-81
2022/08/07 07:27:24;;;;;;;;;3.00;2.00;;;;;23.65;33.31;102074.28;5063010;28;46679;-81
2022/08/07 07:29:55;;;;;;;;;1.33;1.33;;;;;23.73;33.38;102080.88;5077319;28;45458;-81
2022/08/07 07:32:22;;;;;;;;;1.00;1.00;;;;;23.82;33.30;102078.47;5077650;28;45413;-81
2022/08/07 07:34:52;;;;;;;;;1.00;1.00;;;;;23.88;33.28;102078.84;5079005;28;45457;-82
2022/08/07 07:37:21;;;;;;;;;1.33;1.33;;;;;23.95;32.49;102074.66;5078176;28;47174;-82
2022/08/07 07:39:50;;;;;;;;;2.67;2.00;;;;;23.94;32.88;102063.88;5077899;28;45579;-82
2022/08/07 07:42:20;;;;;;;;;1.33;1.33;;;;;24.05;32.44;102069.31;5077038;28;45526;-83
2022/08/07 07:44:48;;;;;;;;;2.00;0.33;;;;;24.11;32.55;102070.69;5074095;28;45642;-83
2022/08/07 07:47:17;;;;;;;;;1.00;1.00;;;;;24.16;32.68;102072.06;5056986;28;46213;-82
2022/08/07 07:49:45;;;;;;;;;0.67;0.67;;;;;24.25;32.53;102072.28;5056845;28;45464;-83
2022/08/07 07:52:13;;;;;;;;;0.33;0.33;;;;;24.33;32.51;102072.56;5057075;28;45461;-83
2022/08/07 07:54:41;;;;;;;;;1.00;1.00;;;;;24.37;32.78;102063.13;5057751;28;45361;-82
2022/08/07 07:57:07;;;;;;;;;1.00;1.00;;;;;24.35;32.51;102054.19;5057503;28;45979;-83
2022/08/07 07:59:35;;;;;;;;;1.00;1.00;;;;;24.50;31.66;102063.91;5057196;28;45514;-83
2022/08/07 08:02:02;;;;;;;;;1.00;1.00;;;;;24.55;31.52;102064.38;5059393;28;45507;-82
2022/08/07 08:04:30;;;;;;;;;1.00;1.00;;;;;24.60;31.69;102055.81;5057758;28;45538;-83
2022/08/07 08:06:57;;;;;;;;;1.00;1.00;;;;;24.59;31.97;102052.25;5058315;28;45450;-82
2022/08/07 08:09:25;;;;;;;;;2.67;1.00;;;;;24.61;31.66;102047.53;5057942;28;45433;-83
2022/08/07 08:11:53;;;;;;;;;1.00;1.00;;;;;24.77;31.65;102057.16;5039498;28;45542;-83
2022/08/07 08:14:19;;;;;;;;;1.00;1.00;;;;;24.83;31.14;102057.50;5058682;28;45408;-83
2022/08/07 08:16:45;;;;;;;;;0.33;0.33;;;;;24.90;31.51;102060.59;5057540;28;45509;-83
2022/08/07 08:19:18;;;;;;;;;1.67;1.67;;;;;24.87;31.38;102044.50;5040080;28;45534;-82
2022/08/07 08:27:23;;;;;;;;;1.00;1.00;;;;;25.17;31.48;102046.50;5062627;28;45407;-82
2022/08/07 08:29:57;;;;;;;;;0.00;0.00;;;;;25.23;30.81;102040.53;5076801;28;45467;-83
2022/08/07 08:32:28;;;;;;;;;1.67;1.00;;;;;25.28;31.11;102035.53;5077533;28;45441;-83
2022/08/07 08:34:57;;;;;;;;;1.67;1.67;;;;;25.38;30.79;102046.56;5079750;28;45537;-83
2022/08/07 08:37:26;;;;;;;;;1.67;1.67;;;;;25.44;30.51;102037.81;5082845;28;46178;-82
2022/08/07 08:39:53;;;;;;;;;0.00;0.00;;;;;25.53;30.42;102043.50;5081009;28;45870;-83
2022/08/07 08:42:40;;;;;;;;;1.00;1.00;;;;;25.59;30.50;102041.09;5082506;28;45416;-82
2022/08/07 08:45:20;;;;;;;;;0.33;0.33;;;;;25.73;29.45;102036.28;5076918;28;45507;-83
2022/08/07 08:48:05;;;;;;;;;2.00;1.00;;;;;25.88;29.87;102034.97;5063149;28;46332;-83
2022/08/07 08:50:37;;;;;;;;;1.00;1.00;;;;;26.13;28.62;102030.03;5062620;28;45457;-83
2022/08/07 08:53:06;;;;;;;;;0.00;0.00;;;;;26.43;28.27;102023.66;5061803;28;45385;-83
2022/08/07 08:55:48;;;;;;;;;0.33;0.33;;;;;27.14;28.13;102021.66;5043927;28;45445;-83
2022/08/07 08:58:50;;;;;;;;;0.00;0.00;;;;;31.26;23.56;102022.53;5060692;28;46374;-83
2022/08/07 09:01:43;;;;;;;;;0.00;0.00;;;;;36.13;18.03;102018.22;5061432;28;45371;-83
2022/08/07 09:04:32;;;;;;;;;0.00;0.00;;;;;39.33;15.97;102018.63;5061023;28;45484;-83
2022/08/07 09:07:09;;;;;;;;;0.00;0.00;;;;;41.26;13.71;102010.69;5060629;28;45443;-83
2022/08/07 09:09:56;;;;;;;;;9.33;9.33;;;;;42.85;12.83;102021.72;5060416;28;45553;-84
2022/08/07 09:12:50;;;;;;;;;18.33;15.00;;;;;44.21;12.61;102028.97;5059645;28;45456;-84
2022/08/07 09:15:34;;;;;;;;;5.67;4.67;;;;;45.38;10.93;102026.53;5054371;28;45473;-84
2022/08/07 09:17:59;;;;;;;;;2.67;2.67;;;;;46.25;10.77;102021.41;5059819;28;45534;-84
2022/08/07 09:20:49;;;;;;;;;6.00;4.67;;;;;46.98;10.11;102030.91;5040924;28;46236;-72
2022/08/07 09:23:24;;;;;;;;;0.33;0.33;;;;;47.67;9.48;102029.44;5058593;28;45504;-72
2022/08/07 09:26:14;;;;;;;;;5.00;5.00;;;;;48.28;9.94;102032.06;5058479;28;45378;-72
2022/08/07 09:28:43;;;;;;;;;1.00;1.00;;;;;48.82;9.01;102035.97;5075847;28;45582;-72
2022/08/07 09:31:25;;;;;;;;;4.67;4.00;;;;;49.26;8.66;102028.56;5078303;28;47104;-72
2022/08/07 09:33:53;;;;;;;;;0.67;0.67;;;;;49.70;7.82;102039.75;5078550;28;45524;-72
2022/08/07 09:36:30;;;;;;;;;1.00;1.00;;;;;49.75;8.35;102030.34;5060428;28;45453;-72
2022/08/07 09:39:05;;;;;;;;;1.00;1.00;;;;;50.06;7.94;102030.84;5078488;28;45557;-72
2022/08/07 09:41:50;;;;;;;;;0.67;0.67;;;;;50.43;8.10;102032.06;5076064;28;47611;-72
2022/08/07 09:44:44;;;;;;;;;2.33;2.33;;;;;50.85;7.66;102028.28;5078381;28;45460;-72
2022/08/07 09:47:37;;;;;;;;;1.00;1.00;;;;;51.13;7.32;102033.25;5057383;28;45405;-72
2022/08/07 09:50:12;;;;;;;;;1.67;1.00;;;;;51.43;7.53;102029.84;5058644;28;45456;-72
2022/08/07 09:53:14;;;;;;;;;1.00;0.00;;;;;51.69;6.75;102027.34;5057658;28;46192;-72
2022/08/07 09:55:48;;;;;;;;;2.00;2.00;;;;;52.01;7.07;102025.56;5035355;28;45569;-72
2022/08/07 09:58:47;;;;;;;;;1.00;1.00;;;;;52.25;6.91;102024.50;5035362;28;45545;-70
2022/08/07 10:01:27;;;;;;;;;0.67;0.67;;;;;52.43;6.92;102020.69;5035747;28;45686;-70
2022/08/07 10:04:23;;;;;;;;;0.33;0.33;;;;;52.69;6.94;102035.13;5035281;28;46450;-70
2022/08/07 10:07:12;;;;;;;;;2.00;1.00;;;;;52.85;6.29;102014.81;5035174;28;45679;-70
2022/08/07 10:09:57;;;;;;;;;1.33;0.67;;;;;53.00;6.28;102017.25;5035395;28;45487;-71
2022/08/07 10:12:28;;;;;;;;;0.00;0.00;;;;;53.11;6.34;102018.72;5035498;28;45451;-70
2022/08/07 10:15:17;;;;;;;;;1.00;1.00;;;;;53.10;6.35;102013.31;5035119;28;46163;-70
2022/08/07 10:18:01;;;;;;;;;1.67;1.67;;;;;53.09;6.44;102005.97;5034704;28;45511;-71
2022/08/07 10:21:00;;;;;;;;;0.00;0.00;;;;;53.08;6.58;102007.06;5035272;28;45499;-84
2022/08/07 10:23:44;;;;;;;;;2.00;2.00;;;;;53.13;5.81;102013.53;5035535;28;45475;-84
2022/08/07 10:26:46;;;;;;;;;1.00;1.00;;;;;53.04;6.39;102009.75;5035023;28;46357;-84
2022/08/07 10:29:20;;;;;;;;;3.67;2.00;;;;;53.06;5.92;101996.03;5041627;28;45515;-84
2022/08/07 10:32:13;;;;;;;;;1.00;1.00;;;;;52.90;6.12;102006.16;5057348;28;45431;-85
2022/08/07 10:35:07;;;;;;;;;1.00;1.00;;;;;52.67;6.45;102014.66;5057844;28;45610;-85
2022/08/07 10:38:01;;;;;;;;;2.00;2.00;;;;;52.39;6.02;102013.06;5057313;28;46304;-84
2022/08/07 10:40:43;;;;;;;;;1.00;1.00;;;;;52.19;6.17;102000.16;5057032;28;45469;-84
2022/08/07 10:43:14;;;;;;;;;3.67;2.67;;;;;52.09;6.47;101999.22;5056164;28;45509;-84
2022/08/07 10:45:46;;;;;;;;;1.00;1.00;;;;;51.81;6.14;101991.88;5067442;28;45553;-85
2022/08/07 10:48:45;;;;;;;;;1.00;1.00;;;;;51.20;6.92;101988.22;5077396;27;46256;-84
2022/08/07 10:51:17;;;;;;;;;1.00;1.00;;;;;50.65;6.92;101988.84;5078182;28;45493;-85
2022/08/07 10:53:52;;;;;;;;;1.00;1.00;;;;;50.36;6.42;101983.34;5076206;28;45463;-85
2022/08/07 10:56:39;;;;;;;;;1.00;1.00;;;;;50.06;7.15;101988.28;5077787;28;45455;-85
2022/08/07 10:59:23;;;;;;;;;1.00;1.00;;;;;49.87;7.26;101976.88;5074924;28;45606;-85
2022/08/07 11:02:04;;;;;;;;;1.00;1.00;;;;;49.20;7.72;101951.28;5077221;27;45551;-85
2022/08/07 11:04:54;;;;;;;;;2.00;2.00;;;;;48.83;7.59;101951.91;5077061;28;45374;-85
2022/08/07 11:07:41;;;;;;;;;1.00;1.00;;;;;48.71;8.18;101949.47;5077307;28;45493;-85
2022/08/07 11:10:21;;;;;;;;;1.33;1.33;;;;;48.50;7.61;101941.13;5075771;28;47589;-85
2022/08/07 11:13:08;;;;;;;;;1.00;1.00;;;;;48.16;8.12;101941.03;5077165;28;45439;-85
2022/08/07 11:15:39;;;;;;;;;2.00;2.00;;;;;48.00;8.06;101940.28;5075784;28;45613;-85
2022/08/07 11:18:20;;;;;;;;;1.00;1.00;;;;;47.49;8.36;101923.56;5077506;28;45532;-85
2022/08/07 11:20:57;;;;;;;;;2.33;1.33;;;;;47.08;9.00;101920.78;5076796;28;47297;-85
2022/08/07 11:23:34;;;;;;;;;1.00;1.00;;;;;46.64;8.42;101910.91;5076799;28;45404;-86
2022/08/07 11:26:08;;;;;;;;;1.00;1.00;;;;;46.22;8.61;101917.63;5077099;27;45409;-85
2022/08/07 11:28:47;;;;;;;;;3.67;3.00;;;;;45.73;9.42;101914.34;5077037;27;45774;-86
2022/08/07 11:31:25;;;;;;;;;1.67;1.67;;;;;45.20;9.57;101918.00;5076681;28;45350;-86
2022/08/07 11:34:02;;;;;;;;;2.00;1.00;;;;;44.66;9.58;101910.50;5076226;28;45458;-86
2022/08/07 11:37:20;;;;;;;;;3.00;3.00;;;;;43.98;10.32;101909.22;5076843;28;45392;-86
2022/08/07 11:40:07;;;;;;;;;1.00;1.00;;;;;43.54;10.58;101904.41;5034243;28;45865;-86
2022/08/07 11:42:39;;;;;;;;;1.00;1.00;;;;;43.23;10.54;101908.75;5033638;28;47271;-86
2022/08/07 11:45:23;;;;;;;;;0.33;0.33;;;;;42.73;10.67;101889.94;5033560;28;45485;-86
2022/08/07 11:48:10;;;;;;;;;2.00;2.00;;;;;42.27;11.28;101889.97;5033552;28;45479;-86
2022/08/07 11:50:53;;;;;;;;;0.67;0.67;;;;;41.89;11.24;101894.25;5033794;28;45376;-86
2022/08/07 11:53:38;;;;;;;;;1.00;1.00;;;;;41.41;12.10;101898.25;5033479;28;45473;-86